sensor_id;sensor_type;location;lat;lon;timestamp;pressure;altitude;pressure_sealevel;temperature;humidity
56456;BME280;42354;53.218;6.564;2022-12-07T00:00:55;46999.59;;;-142.92;82.88
56456;BME280;42354;53.218;6.564;2022-12-07T00:03:28;46997.53;;;-142.92;83.06
56456;BME280;42354;53.218;6.564;2022-12-07T00:05:57;47007.81;;;-142.92;83.10
56456;BME280;42354;53.218;6.564;2022-12-07T00:08:23;46995.50;;;-142.92;83.17
56456;BME280;42354;53.218;6.564;2022-12-07T00:10:48;47005.75;;;-142.92;82.99
56456;BME280;42354;53.218;6.564;2022-12-07T00:13:13;46983.19;;;-142.92;82.79
56456;BME280;42354;53.218;6.564;2022-12-07T00:15:38;46991.38;;;-142.92;82.76
56456;BME280;42354;53.218;6.564;2022-12-07T00:18:04;46991.38;;;-142.92;82.67
56456;BME280;42354;53.218;6.564;2022-12-07T00:20:29;46995.50;;;-142.92;82.63
56456;BME280;42354;53.218;6.564;2022-12-07T00:22:56;46985.22;;;-142.92;82.46
56456;BME280;42354;53.218;6.564;2022-12-07T00:25:21;47001.66;;;-142.92;82.42
56456;BME280;42354;53.218;6.564;2022-12-07T00:27:46;46991.38;;;-142.92;82.81
56456;BME280;42354;53.218;6.564;2022-12-07T00:30:12;47007.81;;;-142.92;82.75
56456;BME280;42354;53.218;6.564;2022-12-07T00:32:37;46995.50;;;-142.92;82.99
56456;BME280;42354;53.218;6.564;2022-12-07T00:35:02;46995.50;;;-142.92;83.20
56456;BME280;42354;53.218;6.564;2022-12-07T00:37:28;46997.53;;;-142.92;83.17
56456;BME280;42354;53.218;6.564;2022-12-07T00:39:53;46983.19;;;-142.92;83.23
56456;BME280;42354;53.218;6.564;2022-12-07T00:42:19;46991.38;;;-142.92;82.94
56456;BME280;42354;53.218;6.564;2022-12-07T00:44:44;46981.13;;;-142.92;82.70
56456;BME280;42354;53.218;6.564;2022-12-07T00:47:09;46991.38;;;-142.92;82.64
56456;BME280;42354;53.218;6.564;2022-12-07T00:49:35;46999.59;;;-142.92;82.65
56456;BME280;42354;53.218;6.564;2022-12-07T00:52:00;47001.66;;;-142.92;82.27
56456;BME280;42354;53.218;6.564;2022-12-07T00:54:26;47009.84;;;-142.92;81.46
56456;BME280;42354;53.218;6.564;2022-12-07T00:56:51;47003.69;;;-142.92;81.19
56456;BME280;42354;53.218;6.564;2022-12-07T00:59:16;47001.66;;;-142.92;81.09
56456;BME280;42354;53.218;6.564;2022-12-07T01:01:42;46991.38;;;-142.92;80.53
56456;BME280;42354;53.218;6.564;2022-12-07T01:04:07;46993.44;;;-142.92;80.16
56456;BME280;42354;53.218;6.564;2022-12-07T01:06:33;47011.91;;;-142.92;79.64
56456;BME280;42354;53.218;6.564;2022-12-07T01:08:59;47005.75;;;-142.92;79.16
56456;BME280;42354;53.218;6.564;2022-12-07T01:11:27;47013.97;;;-142.92;78.32
56456;BME280;42354;53.218;6.564;2022-12-07T01:13:54;46991.38;;;-142.92;77.90
56456;BME280;42354;53.218;6.564;2022-12-07T01:16:21;46997.53;;;-142.92;77.84
56456;BME280;42354;53.218;6.564;2022-12-07T01:18:48;46993.44;;;-142.92;77.33
56456;BME280;42354;53.218;6.564;2022-12-07T01:21:25;47001.66;;;-142.92;77.50
56456;BME280;42354;53.218;6.564;2022-12-07T01:23:51;47016.00;;;-142.92;77.53
56456;BME280;42354;53.218;6.564;2022-12-07T01:26:19;46993.44;;;-142.92;77.76
56456;BME280;42354;53.218;6.564;2022-12-07T01:28:45;47007.81;;;-142.92;77.97
56456;BME280;42354;53.218;6.564;2022-12-07T01:31:16;47003.69;;;-142.92;78.17
56456;BME280;42354;53.218;6.564;2022-12-07T01:33:43;46995.50;;;-142.92;77.46
56456;BME280;42354;53.218;6.564;2022-12-07T01:38:44;47001.66;;;-142.92;77.29
56456;BME280;42354;53.218;6.564;2022-12-07T01:41:10;47011.91;;;-142.92;77.99
56456;BME280;42354;53.218;6.564;2022-12-07T01:43:36;46983.19;;;-142.92;78.86
56456;BME280;42354;53.218;6.564;2022-12-07T01:46:03;46972.91;;;-142.92;79.90
56456;BME280;42354;53.218;6.564;2022-12-07T01:48:38;46991.38;;;-142.92;80.18
56456;BME280;42354;53.218;6.564;2022-12-07T01:51:09;46997.53;;;-142.92;80.52
56456;BME280;42354;53.218;6.564;2022-12-07T01:53:38;46997.53;;;-142.92;81.19
56456;BME280;42354;53.218;6.564;2022-12-07T01:56:06;46987.28;;;-142.92;81.35
56456;BME280;42354;53.218;6.564;2022-12-07T01:58:33;46997.53;;;-142.92;81.54
56456;BME280;42354;53.218;6.564;2022-12-07T02:00:58;46997.53;;;-142.92;81.87
56456;BME280;42354;53.218;6.564;2022-12-07T02:03:31;47016.00;;;-142.92;82.01
56456;BME280;42354;53.218;6.564;2022-12-07T02:05:57;47003.69;;;-142.92;82.25
56456;BME280;42354;53.218;6.564;2022-12-07T02:08:24;46981.13;;;-142.92;82.64
56456;BME280;42354;53.218;6.564;2022-12-07T02:10:50;46999.59;;;-142.92;82.70
56456;BME280;42354;53.218;6.564;2022-12-07T02:13:18;46995.50;;;-142.92;82.99
56456;BME280;42354;53.218;6.564;2022-12-07T02:30:00;46977.03;;;-142.92;84.47
56456;BME280;42354;53.218;6.564;2022-12-07T02:35:08;46993.44;;;-142.92;84.60
56456;BME280;42354;53.218;6.564;2022-12-07T02:40:37;47007.81;;;-142.92;84.99
56456;BME280;42354;53.218;6.564;2022-12-07T02:43:11;47007.81;;;-142.92;85.05
56456;BME280;42354;53.218;6.564;2022-12-07T02:45:40;47013.97;;;-142.92;84.88
56456;BME280;42354;53.218;6.564;2022-12-07T02:48:08;47005.75;;;-142.92;83.99
56456;BME280;42354;53.218;6.564;2022-12-07T02:50:35;47007.81;;;-142.92;83.84
56456;BME280;42354;53.218;6.564;2022-12-07T02:53:00;46995.50;;;-142.92;83.23
56456;BME280;42354;53.218;6.564;2022-12-07T02:55:30;47009.84;;;-142.92;83.13
56456;BME280;42354;53.218;6.564;2022-12-07T02:58:28;46991.38;;;-142.92;83.03
56456;BME280;42354;53.218;6.564;2022-12-07T03:03:47;46999.59;;;-142.92;83.19
56456;BME280;42354;53.218;6.564;2022-12-07T03:06:25;47001.66;;;-142.92;83.21
56456;BME280;42354;53.218;6.564;2022-12-07T03:09:00;47016.00;;;-142.92;83.03
56456;BME280;42354;53.218;6.564;2022-12-07T03:16:55;46995.50;;;-142.92;82.80
56456;BME280;42354;53.218;6.564;2022-12-07T03:19:23;47034.47;;;-142.92;82.70
56456;BME280;42354;53.218;6.564;2022-12-07T03:21:57;46997.53;;;-142.92;82.03
56456;BME280;42354;53.218;6.564;2022-12-07T03:24:35;47001.66;;;-142.92;81.54
56456;BME280;42354;53.218;6.564;2022-12-07T03:27:09;47022.16;;;-142.92;81.90
56456;BME280;42354;53.218;6.564;2022-12-07T03:29:41;46999.59;;;-142.92;82.19
56456;BME280;42354;53.218;6.564;2022-12-07T03:34:47;46999.59;;;-142.92;83.28
56456;BME280;42354;53.218;6.564;2022-12-07T03:37:18;46989.34;;;-142.92;83.63
56456;BME280;42354;53.218;6.564;2022-12-07T03:42:36;46989.34;;;-142.92;84.16
56456;BME280;42354;53.218;6.564;2022-12-07T03:45:03;46993.44;;;-142.92;84.09
56456;BME280;42354;53.218;6.564;2022-12-07T03:47:34;46970.88;;;-142.92;83.54
56456;BME280;42354;53.218;6.564;2022-12-07T03:50:38;47003.69;;;-142.92;83.35
56456;BME280;42354;53.218;6.564;2022-12-07T03:53:01;46993.44;;;-142.92;83.23
56456;BME280;42354;53.218;6.564;2022-12-07T03:55:31;47005.75;;;-142.92;83.15
56456;BME280;42354;53.218;6.564;2022-12-07T03:58:07;47011.91;;;-142.92;82.99
56456;BME280;42354;53.218;6.564;2022-12-07T04:00:34;46983.19;;;-142.92;82.93
56456;BME280;42354;53.218;6.564;2022-12-07T04:02:59;47003.69;;;-142.92;83.03
56456;BME280;42354;53.218;6.564;2022-12-07T04:05:25;46993.44;;;-142.92;82.70
56456;BME280;42354;53.218;6.564;2022-12-07T04:07:51;47003.69;;;-142.92;82.66
56456;BME280;42354;53.218;6.564;2022-12-07T04:10:16;46981.13;;;-142.92;82.72
56456;BME280;42354;53.218;6.564;2022-12-07T04:12:42;46999.59;;;-142.92;82.70
56456;BME280;42354;53.218;6.564;2022-12-07T04:15:08;47003.69;;;-142.92;82.59
56456;BME280;42354;53.218;6.564;2022-12-07T04:17:33;47007.81;;;-142.92;82.81
56456;BME280;42354;53.218;6.564;2022-12-07T04:19:59;47001.66;;;-142.92;82.86
56456;BME280;42354;53.218;6.564;2022-12-07T04:22:24;47003.69;;;-142.92;82.97
56456;BME280;42354;53.218;6.564;2022-12-07T04:24:49;47005.75;;;-142.92;82.84
56456;BME280;42354;53.218;6.564;2022-12-07T04:27:15;47011.91;;;-142.92;82.93
56456;BME280;42354;53.218;6.564;2022-12-07T04:29:40;46977.03;;;-142.92;83.28
56456;BME280;42354;53.218;6.564;2022-12-07T04:32:05;46999.59;;;-142.92;83.25
56456;BME280;42354;53.218;6.564;2022-12-07T04:34:31;47003.69;;;-142.92;83.35
56456;BME280;42354;53.218;6.564;2022-12-07T04:36:56;46985.22;;;-142.92;83.46
56456;BME280;42354;53.218;6.564;2022-12-07T04:39:29;47005.75;;;-142.92;83.68
56456;BME280;42354;53.218;6.564;2022-12-07T04:41:56;46991.38;;;-142.92;83.33
56456;BME280;42354;53.218;6.564;2022-12-07T04:44:23;46995.50;;;-142.92;83.02
56456;BME280;42354;53.218;6.564;2022-12-07T04:46:49;47011.91;;;-142.92;82.54
56456;BME280;42354;53.218;6.564;2022-12-07T04:49:15;46987.28;;;-142.92;82.48
56456;BME280;42354;53.218;6.564;2022-12-07T04:51:41;47013.97;;;-142.92;82.51
56456;BME280;42354;53.218;6.564;2022-12-07T04:54:07;47007.81;;;-142.92;82.57
56456;BME280;42354;53.218;6.564;2022-12-07T04:56:32;46997.53;;;-142.92;82.72
56456;BME280;42354;53.218;6.564;2022-12-07T04:59:00;46995.50;;;-142.92;82.83
56456;BME280;42354;53.218;6.564;2022-12-07T05:01:26;46987.28;;;-142.92;83.00
56456;BME280;42354;53.218;6.564;2022-12-07T05:03:52;47003.69;;;-142.92;83.12
56456;BME280;42354;53.218;6.564;2022-12-07T05:06:18;46999.59;;;-142.92;83.48
56456;BME280;42354;53.218;6.564;2022-12-07T05:08:43;47001.66;;;-142.92;83.64
56456;BME280;42354;53.218;6.564;2022-12-07T05:11:10;46999.59;;;-142.92;83.90
56456;BME280;42354;53.218;6.564;2022-12-07T05:13:56;46987.28;;;-142.92;84.04
56456;BME280;42354;53.218;6.564;2022-12-07T05:16:21;46993.44;;;-142.92;84.19
56456;BME280;42354;53.218;6.564;2022-12-07T05:18:46;46993.44;;;-142.92;84.16
56456;BME280;42354;53.218;6.564;2022-12-07T05:21:12;46972.91;;;-142.92;84.33
56456;BME280;42354;53.218;6.564;2022-12-07T05:23:37;47003.69;;;-142.92;84.36
56456;BME280;42354;53.218;6.564;2022-12-07T05:26:02;46995.50;;;-142.92;84.39
56456;BME280;42354;53.218;6.564;2022-12-07T05:28:28;46989.34;;;-142.92;84.41
56456;BME280;42354;53.218;6.564;2022-12-07T05:30:53;47016.00;;;-142.92;84.51
56456;BME280;42354;53.218;6.564;2022-12-07T05:33:18;47009.84;;;-142.92;84.68
56456;BME280;42354;53.218;6.564;2022-12-07T05:35:44;46991.38;;;-142.92;84.59
56456;BME280;42354;53.218;6.564;2022-12-07T05:38:09;47018.06;;;-142.92;84.66
56456;BME280;42354;53.218;6.564;2022-12-07T05:40:34;46981.13;;;-142.92;84.78
56456;BME280;42354;53.218;6.564;2022-12-07T05:43:01;46981.13;;;-142.92;84.80
56456;BME280;42354;53.218;6.564;2022-12-07T05:45:26;47003.69;;;-142.92;84.77
56456;BME280;42354;53.218;6.564;2022-12-07T05:47:52;46987.28;;;-142.92;85.16
56456;BME280;42354;53.218;6.564;2022-12-07T05:50:17;47001.66;;;-142.92;85.29
56456;BME280;42354;53.218;6.564;2022-12-07T05:52:42;46999.59;;;-142.92;85.24
56456;BME280;42354;53.218;6.564;2022-12-07T05:55:08;47005.75;;;-142.92;85.35
56456;BME280;42354;53.218;6.564;2022-12-07T05:57:33;46981.13;;;-142.92;85.44
56456;BME280;42354;53.218;6.564;2022-12-07T05:59:58;46987.28;;;-142.92;85.54
56456;BME280;42354;53.218;6.564;2022-12-07T06:02:24;47007.81;;;-142.92;85.60
56456;BME280;42354;53.218;6.564;2022-12-07T06:04:49;47003.69;;;-142.92;85.65
56456;BME280;42354;53.218;6.564;2022-12-07T06:07:15;46970.88;;;-142.92;85.38
56456;BME280;42354;53.218;6.564;2022-12-07T06:09:41;46995.50;;;-142.92;85.64
56456;BME280;42354;53.218;6.564;2022-12-07T06:12:09;46995.50;;;-142.92;84.81
56456;BME280;42354;53.218;6.564;2022-12-07T06:14:53;46972.91;;;-142.92;83.52
56456;BME280;42354;53.218;6.564;2022-12-07T06:17:19;46999.59;;;-142.92;82.78
56456;BME280;42354;53.218;6.564;2022-12-07T06:19:44;46999.59;;;-142.92;82.98
56456;BME280;42354;53.218;6.564;2022-12-07T06:22:10;47007.81;;;-142.92;82.66
56456;BME280;42354;53.218;6.564;2022-12-07T06:24:37;46999.59;;;-142.92;82.61
56456;BME280;42354;53.218;6.564;2022-12-07T06:27:02;46979.06;;;-142.92;82.36
56456;BME280;42354;53.218;6.564;2022-12-07T06:29:28;46999.59;;;-142.92;82.13
56456;BME280;42354;53.218;6.564;2022-12-07T06:31:53;46991.38;;;-142.92;82.12
56456;BME280;42354;53.218;6.564;2022-12-07T06:34:20;46999.59;;;-142.92;82.32
56456;BME280;42354;53.218;6.564;2022-12-07T06:36:50;47009.84;;;-142.92;82.38
56456;BME280;42354;53.218;6.564;2022-12-07T06:39:22;47022.16;;;-142.92;82.53
56456;BME280;42354;53.218;6.564;2022-12-07T06:41:50;46991.38;;;-142.92;82.41
56456;BME280;42354;53.218;6.564;2022-12-07T06:44:17;46997.53;;;-142.92;82.37
56456;BME280;42354;53.218;6.564;2022-12-07T06:46:42;46995.50;;;-142.92;82.19
56456;BME280;42354;53.218;6.564;2022-12-07T06:49:08;47001.66;;;-142.92;82.29
56456;BME280;42354;53.218;6.564;2022-12-07T06:51:34;46993.44;;;-142.92;82.24
56456;BME280;42354;53.218;6.564;2022-12-07T06:54:04;46995.50;;;-142.92;82.53
56456;BME280;42354;53.218;6.564;2022-12-07T06:56:30;47009.84;;;-142.92;82.41
56456;BME280;42354;53.218;6.564;2022-12-07T06:58:55;46989.34;;;-142.92;82.68
56456;BME280;42354;53.218;6.564;2022-12-07T07:01:22;46962.66;;;-142.92;82.70
56456;BME280;42354;53.218;6.564;2022-12-07T07:03:47;46985.22;;;-142.92;82.65
56456;BME280;42354;53.218;6.564;2022-12-07T07:06:13;46987.28;;;-142.92;82.66
56456;BME280;42354;53.218;6.564;2022-12-07T07:08:39;46991.38;;;-142.92;83.01
56456;BME280;42354;53.218;6.564;2022-12-07T07:11:05;47013.97;;;-142.92;82.37
56456;BME280;42354;53.218;6.564;2022-12-07T07:13:31;47016.00;;;-142.92;82.63
56456;BME280;42354;53.218;6.564;2022-12-07T07:15:56;46997.53;;;-142.92;83.03
56456;BME280;42354;53.218;6.564;2022-12-07T07:18:22;46995.50;;;-142.92;83.90
56456;BME280;42354;53.218;6.564;2022-12-07T07:20:47;46983.19;;;-142.92;84.21
56456;BME280;42354;53.218;6.564;2022-12-07T07:23:13;46999.59;;;-142.92;84.42
56456;BME280;42354;53.218;6.564;2022-12-07T07:25:38;47005.75;;;-142.92;84.44
56456;BME280;42354;53.218;6.564;2022-12-07T07:28:04;46987.28;;;-142.92;84.64
56456;BME280;42354;53.218;6.564;2022-12-07T07:30:30;46987.28;;;-142.92;84.46
56456;BME280;42354;53.218;6.564;2022-12-07T07:32:57;46987.28;;;-142.92;84.42
56456;BME280;42354;53.218;6.564;2022-12-07T07:35:23;46999.59;;;-142.92;83.93
56456;BME280;42354;53.218;6.564;2022-12-07T07:37:48;47016.00;;;-142.92;83.79
56456;BME280;42354;53.218;6.564;2022-12-07T07:40:14;46991.38;;;-142.92;83.76
56456;BME280;42354;53.218;6.564;2022-12-07T07:42:39;46995.50;;;-142.92;83.25
56456;BME280;42354;53.218;6.564;2022-12-07T07:45:05;46985.22;;;-142.92;83.36
56456;BME280;42354;53.218;6.564;2022-12-07T07:47:30;46997.53;;;-142.92;83.17
56456;BME280;42354;53.218;6.564;2022-12-07T07:49:56;46991.38;;;-142.92;83.54
56456;BME280;42354;53.218;6.564;2022-12-07T07:52:22;46999.59;;;-142.92;83.77
56456;BME280;42354;53.218;6.564;2022-12-07T07:54:47;46983.19;;;-142.92;83.92
56456;BME280;42354;53.218;6.564;2022-12-07T07:57:13;46991.38;;;-142.92;84.17
56456;BME280;42354;53.218;6.564;2022-12-07T07:59:39;46997.53;;;-142.92;84.19
56456;BME280;42354;53.218;6.564;2022-12-07T08:02:05;46987.28;;;-142.92;84.50
56456;BME280;42354;53.218;6.564;2022-12-07T08:04:30;46995.50;;;-142.92;84.75
56456;BME280;42354;53.218;6.564;2022-12-07T08:06:56;47009.84;;;-142.92;84.88
56456;BME280;42354;53.218;6.564;2022-12-07T08:09:21;47001.66;;;-142.92;85.11
56456;BME280;42354;53.218;6.564;2022-12-07T08:11:47;47001.66;;;-142.92;85.26
56456;BME280;42354;53.218;6.564;2022-12-07T08:14:12;46993.44;;;-142.92;85.45
56456;BME280;42354;53.218;6.564;2022-12-07T08:16:37;47005.75;;;-142.92;85.58
56456;BME280;42354;53.218;6.564;2022-12-07T08:19:04;46977.03;;;-142.92;85.75
56456;BME280;42354;53.218;6.564;2022-12-07T08:21:30;46997.53;;;-142.92;85.37
56456;BME280;42354;53.218;6.564;2022-12-07T08:23:57;47007.81;;;-142.92;85.47
56456;BME280;42354;53.218;6.564;2022-12-07T08:26:22;46987.28;;;-142.92;85.40
56456;BME280;42354;53.218;6.564;2022-12-07T08:28:47;47007.81;;;-142.92;85.53
56456;BME280;42354;53.218;6.564;2022-12-07T08:31:17;46987.28;;;-142.92;85.42
56456;BME280;42354;53.218;6.564;2022-12-07T08:33:46;47016.00;;;-142.92;85.04
56456;BME280;42354;53.218;6.564;2022-12-07T08:36:12;46985.22;;;-142.92;84.57
56456;BME280;42354;53.218;6.564;2022-12-07T08:38:39;46997.53;;;-142.92;84.68
56456;BME280;42354;53.218;6.564;2022-12-07T08:41:06;46995.50;;;-142.92;84.56
56456;BME280;42354;53.218;6.564;2022-12-07T08:43:32;47011.91;;;-142.92;84.08
56456;BME280;42354;53.218;6.564;2022-12-07T08:46:10;47020.13;;;-142.92;83.22
56456;BME280;42354;53.218;6.564;2022-12-07T08:48:51;46991.38;;;-142.92;82.39
56456;BME280;42354;53.218;6.564;2022-12-07T08:51:18;47016.00;;;-142.92;82.58
56456;BME280;42354;53.218;6.564;2022-12-07T08:53:44;47009.84;;;-142.92;82.26
56456;BME280;42354;53.218;6.564;2022-12-07T08:56:11;47003.69;;;-142.92;81.94
56456;BME280;42354;53.218;6.564;2022-12-07T08:58:38;46981.13;;;-142.92;81.59
56456;BME280;42354;53.218;6.564;2022-12-07T09:01:05;47001.66;;;-142.92;81.51
56456;BME280;42354;53.218;6.564;2022-12-07T09:03:31;47003.69;;;-142.92;81.32
56456;BME280;42354;53.218;6.564;2022-12-07T09:05:57;47007.81;;;-142.92;81.08
56456;BME280;42354;53.218;6.564;2022-12-07T09:08:25;46991.38;;;-142.92;80.57
56456;BME280;42354;53.218;6.564;2022-12-07T09:10:51;46997.53;;;-142.92;80.38
56456;BME280;42354;53.218;6.564;2022-12-07T09:13:17;47016.00;;;-142.92;80.14
56456;BME280;42354;53.218;6.564;2022-12-07T09:15:42;47003.69;;;-142.92;79.51
56456;BME280;42354;53.218;6.564;2022-12-07T09:18:07;46995.50;;;-142.92;79.55
56456;BME280;42354;53.218;6.564;2022-12-07T09:20:33;47007.81;;;-142.92;79.28
56456;BME280;42354;53.218;6.564;2022-12-07T09:22:59;46995.50;;;-142.92;79.20
56456;BME280;42354;53.218;6.564;2022-12-07T09:25:25;46995.50;;;-142.92;79.07
56456;BME280;42354;53.218;6.564;2022-12-07T09:27:55;46991.38;;;-142.92;77.95
56456;BME280;42354;53.218;6.564;2022-12-07T09:30:21;46977.03;;;-142.92;77.53
56456;BME280;42354;53.218;6.564;2022-12-07T09:32:47;47005.75;;;-142.92;76.77
56456;BME280;42354;53.218;6.564;2022-12-07T09:35:12;47011.91;;;-142.92;76.38
56456;BME280;42354;53.218;6.564;2022-12-07T09:37:39;47003.69;;;-142.92;74.91
56456;BME280;42354;53.218;6.564;2022-12-07T09:40:05;47032.44;;;-142.92;73.97
56456;BME280;42354;53.218;6.564;2022-12-07T09:42:41;47016.00;;;-142.92;72.50
56456;BME280;42354;53.218;6.564;2022-12-07T09:47:46;47016.00;;;-142.92;71.21
56456;BME280;42354;53.218;6.564;2022-12-07T09:50:16;46991.38;;;-142.92;70.75
56456;BME280;42354;53.218;6.564;2022-12-07T09:52:44;47009.84;;;-142.92;71.84
56456;BME280;42354;53.218;6.564;2022-12-07T09:55:22;47001.66;;;-142.92;72.71
56456;BME280;42354;53.218;6.564;2022-12-07T09:57:50;47011.91;;;-142.92;73.44
56456;BME280;42354;53.218;6.564;2022-12-07T10:00:19;47020.13;;;-142.92;73.39
56456;BME280;42354;53.218;6.564;2022-12-07T10:08:04;47005.75;;;-142.92;73.89
56456;BME280;42354;53.218;6.564;2022-12-07T10:10:34;46985.22;;;-142.92;73.94
56456;BME280;42354;53.218;6.564;2022-12-07T10:13:14;46985.22;;;-142.92;74.52
56456;BME280;42354;53.218;6.564;2022-12-07T10:18:17;47013.97;;;-142.92;74.61
56456;BME280;42354;53.218;6.564;2022-12-07T10:20:44;46979.06;;;-142.92;74.99
56456;BME280;42354;53.218;6.564;2022-12-07T10:23:16;47011.91;;;-142.92;74.49
56456;BME280;42354;53.218;6.564;2022-12-07T10:25:43;46987.28;;;-142.92;74.78
56456;BME280;42354;53.218;6.564;2022-12-07T10:30:51;46993.44;;;-142.92;75.23
56456;BME280;42354;53.218;6.564;2022-12-07T10:33:36;47003.69;;;-142.92;75.20
56456;BME280;42354;53.218;6.564;2022-12-07T10:36:26;47009.84;;;-142.92;75.38
56456;BME280;42354;53.218;6.564;2022-12-07T10:39:16;47009.84;;;-142.92;75.19
56456;BME280;42354;53.218;6.564;2022-12-07T10:42:00;47011.91;;;-142.92;74.71
56456;BME280;42354;53.218;6.564;2022-12-07T10:44:31;47005.75;;;-142.92;74.26
56456;BME280;42354;53.218;6.564;2022-12-07T10:49:36;47016.00;;;-142.92;74.35
56456;BME280;42354;53.218;6.564;2022-12-07T10:52:25;46993.44;;;-142.92;73.88
56456;BME280;42354;53.218;6.564;2022-12-07T11:00:37;46997.53;;;-142.92;74.13
56456;BME280;42354;53.218;6.564;2022-12-07T11:03:36;47007.81;;;-142.92;74.72
56456;BME280;42354;53.218;6.564;2022-12-07T11:06:18;47007.81;;;-142.92;74.32
56456;BME280;42354;53.218;6.564;2022-12-07T11:12:52;47007.81;;;-142.92;74.39
56456;BME280;42354;53.218;6.564;2022-12-07T11:15:13;47024.22;;;-142.92;74.78
56456;BME280;42354;53.218;6.564;2022-12-07T11:17:48;46993.44;;;-142.92;74.97
56456;BME280;42354;53.218;6.564;2022-12-07T11:20:47;46991.38;;;-142.92;75.69
56456;BME280;42354;53.218;6.564;2022-12-07T11:29:03;46991.38;;;-142.92;76.20
56456;BME280;42354;53.218;6.564;2022-12-07T11:32:04;46991.38;;;-142.92;76.27
56456;BME280;42354;53.218;6.564;2022-12-07T11:34:41;46987.28;;;-142.92;75.67
56456;BME280;42354;53.218;6.564;2022-12-07T11:37:18;46993.44;;;-142.92;75.22
56456;BME280;42354;53.218;6.564;2022-12-07T11:39:55;47005.75;;;-142.92;74.59
56456;BME280;42354;53.218;6.564;2022-12-07T11:42:33;47009.84;;;-142.92;73.73
56456;BME280;42354;53.218;6.564;2022-12-07T11:45:20;46999.59;;;-142.92;73.72
56456;BME280;42354;53.218;6.564;2022-12-07T11:47:58;46997.53;;;-142.92;72.57
56456;BME280;42354;53.218;6.564;2022-12-07T11:50:39;47011.91;;;-142.92;71.76
56456;BME280;42354;53.218;6.564;2022-12-07T11:53:21;46989.34;;;-142.92;72.04
56456;BME280;42354;53.218;6.564;2022-12-07T11:56:14;46993.44;;;-142.92;71.62
56456;BME280;42354;53.218;6.564;2022-12-07T12:01:50;47009.84;;;-142.92;72.20
56456;BME280;42354;53.218;6.564;2022-12-07T12:04:27;46987.28;;;-142.92;72.11
56456;BME280;42354;53.218;6.564;2022-12-07T12:06:54;46997.53;;;-142.92;73.01
56456;BME280;42354;53.218;6.564;2022-12-07T12:09:25;46989.34;;;-142.92;72.66
56456;BME280;42354;53.218;6.564;2022-12-07T12:12:13;46993.44;;;-142.92;73.74
56456;BME280;42354;53.218;6.564;2022-12-07T12:14:46;46983.19;;;-142.92;74.30
56456;BME280;42354;53.218;6.564;2022-12-07T12:20:46;46993.44;;;-142.92;74.06
56456;BME280;42354;53.218;6.564;2022-12-07T12:23:23;46979.06;;;-142.92;74.28
56456;BME280;42354;53.218;6.564;2022-12-07T12:25:58;46993.44;;;-142.92;74.38
56456;BME280;42354;53.218;6.564;2022-12-07T12:31:07;46999.59;;;-142.92;74.18
56456;BME280;42354;53.218;6.564;2022-12-07T12:33:34;47011.91;;;-142.92;73.37
56456;BME280;42354;53.218;6.564;2022-12-07T12:44:02;47005.75;;;-142.92;73.53
56456;BME280;42354;53.218;6.564;2022-12-07T12:51:47;47018.06;;;-142.92;73.43
56456;BME280;42354;53.218;6.564;2022-12-07T12:54:29;46991.38;;;-142.92;73.98
56456;BME280;42354;53.218;6.564;2022-12-07T12:57:13;46997.53;;;-142.92;73.28
56456;BME280;42354;53.218;6.564;2022-12-07T13:04:50;47016.00;;;-142.92;74.49
56456;BME280;42354;53.218;6.564;2022-12-07T13:15:42;47005.75;;;-142.92;76.28
56456;BME280;42354;53.218;6.564;2022-12-07T13:23:14;46995.50;;;-142.92;76.68
56456;BME280;42354;53.218;6.564;2022-12-07T13:25:49;47013.97;;;-142.92;76.73
56456;BME280;42354;53.218;6.564;2022-12-07T13:28:20;46991.38;;;-142.92;75.97
56456;BME280;42354;53.218;6.564;2022-12-07T13:33:28;46991.38;;;-142.92;75.76
56456;BME280;42354;53.218;6.564;2022-12-07T13:35:54;46995.50;;;-142.92;75.96
56456;BME280;42354;53.218;6.564;2022-12-07T13:38:33;46991.38;;;-142.92;75.99
56456;BME280;42354;53.218;6.564;2022-12-07T13:41:14;46987.28;;;-142.92;76.88
56456;BME280;42354;53.218;6.564;2022-12-07T13:46:11;47001.66;;;-142.92;76.51
56456;BME280;42354;53.218;6.564;2022-12-07T13:48:49;47003.69;;;-142.92;77.10
56456;BME280;42354;53.218;6.564;2022-12-07T13:51:21;46987.28;;;-142.92;77.57
56456;BME280;42354;53.218;6.564;2022-12-07T13:53:52;46989.34;;;-142.92;77.15
56456;BME280;42354;53.218;6.564;2022-12-07T13:56:18;47005.75;;;-142.92;77.11
56456;BME280;42354;53.218;6.564;2022-12-07T13:58:46;46989.34;;;-142.92;77.11
56456;BME280;42354;53.218;6.564;2022-12-07T14:01:12;46970.88;;;-142.92;76.99
56456;BME280;42354;53.218;6.564;2022-12-07T14:03:38;47001.66;;;-142.92;77.61
56456;BME280;42354;53.218;6.564;2022-12-07T14:06:12;47003.69;;;-142.92;78.19
56456;BME280;42354;53.218;6.564;2022-12-07T14:08:39;46977.03;;;-142.92;78.90
56456;BME280;42354;53.218;6.564;2022-12-07T14:11:05;47007.81;;;-142.92;79.47
56456;BME280;42354;53.218;6.564;2022-12-07T14:13:39;46997.53;;;-142.92;79.79
56456;BME280;42354;53.218;6.564;2022-12-07T14:18:51;46991.38;;;-142.92;80.81
56456;BME280;42354;53.218;6.564;2022-12-07T14:21:19;47013.97;;;-142.92;81.13
56456;BME280;42354;53.218;6.564;2022-12-07T14:26:40;46983.19;;;-142.92;81.95
56456;BME280;42354;53.218;6.564;2022-12-07T14:29:37;46995.50;;;-142.92;82.09
56456;BME280;42354;53.218;6.564;2022-12-07T14:32:19;46981.13;;;-142.92;82.26
56456;BME280;42354;53.218;6.564;2022-12-07T14:35:02;46991.38;;;-142.92;82.08
56456;BME280;42354;53.218;6.564;2022-12-07T14:37:29;46999.59;;;-142.92;82.01
56456;BME280;42354;53.218;6.564;2022-12-07T14:39:56;47024.22;;;-142.92;82.17
56456;BME280;42354;53.218;6.564;2022-12-07T14:42:24;46991.38;;;-142.92;81.69
56456;BME280;42354;53.218;6.564;2022-12-07T14:44:50;46989.34;;;-142.92;81.46
56456;BME280;42354;53.218;6.564;2022-12-07T14:47:15;46981.13;;;-142.92;81.05
56456;BME280;42354;53.218;6.564;2022-12-07T14:49:41;46991.38;;;-142.92;80.92